Time;durP1;ratioP1;P1;durP2;ratioP2;P2;SDS_P1;SDS_P2;PMS_P1;PMS_P2;Temp;Humidity;BMP_temperature;BMP_pressure;BME280_temperature;BME280_humidity;BME280_pressure;Samples;Min_cycle;Max_cycle;Signal;HPM_P1;HPM_P2
2023/03/31 00:01:51;;;;;;;8.82;2.83;;;;;;;8.79;96.86;97592.56;7387010;19;20010;-77
2023/03/31 00:04:22;;;;;;;7.55;3.10;;;;;;;8.86;96.93;97575.47;7390620;19;20352;-77
2023/03/31 00:06:52;;;;;;;8.05;3.00;;;;;;;8.89;92.82;97569.16;7387094;19;20093;-76
2023/03/31 00:09:20;;;;;;;5.68;2.60;;;;;;;8.96;87.71;97565.00;7390361;19;20469;-76
2023/03/31 00:11:48;;;;;;;6.65;2.35;;;;;;;8.95;86.24;97553.81;7390199;19;20006;-77
2023/03/31 00:14:17;;;;;;;9.38;3.08;;;;;;;8.97;86.72;97536.28;7376432;19;19998;-77
2023/03/31 00:16:44;;;;;;;3.55;2.45;;;;;;;9.02;86.32;97532.47;7388538;19;20006;-77
2023/03/31 00:19:17;;;;;;;10.13;3.08;;;;;;;9.09;86.67;97538.69;7390082;19;20006;-76
2023/03/31 00:21:45;;;;;;;5.07;2.55;;;;;;;9.18;88.91;97530.84;7386487;19;20010;-76
2023/03/31 00:24:13;;;;;;;6.75;2.60;;;;;;;9.27;90.70;97531.72;7390000;19;20474;-77
2023/03/31 00:26:39;;;;;;;6.25;2.90;;;;;;;9.32;90.41;97521.69;7389691;19;20010;-76
2023/03/31 00:29:08;;;;;;;7.80;3.75;;;;;;;9.33;89.32;97514.72;7389420;19;20026;-76
2023/03/31 00:31:35;;;;;;;5.15;3.05;;;;;;;9.40;90.62;97507.94;7389923;19;20110;-76
2023/03/31 00:34:01;;;;;;;8.13;3.40;;;;;;;9.42;90.05;97502.59;7388527;19;20020;-76
2023/03/31 00:36:28;;;;;;;6.88;3.20;;;;;;;9.44;89.87;97500.66;7388170;19;20350;-76
2023/03/31 00:39:10;;;;;;;8.00;3.38;;;;;;;9.45;89.76;97495.31;7390916;19;20026;-77
2023/03/31 00:41:38;;;;;;;7.13;3.17;;;;;;;9.43;89.21;97484.25;7388101;19;20006;-76
2023/03/31 00:44:23;;;;;;;5.80;2.92;;;;;;;9.43;89.29;97484.25;7389079;19;20022;-76
2023/03/31 00:47:03;;;;;;;6.20;3.10;;;;;;;9.42;88.96;97482.59;7389072;19;20078;-76
2023/03/31 00:49:41;;;;;;;8.02;3.17;;;;;;;9.42;88.68;97479.22;7388713;19;20018;-77
2023/03/31 00:52:20;;;;;;;7.00;3.30;;;;;;;9.42;88.22;97479.22;7389760;19;20022;-76
2023/03/31 00:54:53;;;;;;;11.27;3.70;;;;;;;9.42;88.52;97481.81;7390492;19;20010;-76
2023/03/31 00:57:22;;;;;;;7.53;3.10;;;;;;;9.38;88.23;97479.50;7386453;19;20014;-77
2023/03/31 00:59:56;;;;;;;10.73;3.33;;;;;;;9.37;89.06;97470.09;7388774;19;20006;-76
2023/03/31 01:02:26;;;;;;;7.70;3.20;;;;;;;9.34;88.30;97472.97;7388681;19;20011;-76
2023/03/31 01:05:00;;;;;;;5.00;3.00;;;;;;;9.35;89.06;97472.00;7390847;19;20103;-76
2023/03/31 01:07:44;;;;;;;7.30;3.00;;;;;;;9.37;88.76;97464.06;7389194;19;20010;-77
2023/03/31 01:10:11;;;;;;;8.25;3.50;;;;;;;9.37;88.48;97464.91;7389266;19;20025;-76
2023/03/31 01:12:43;;;;;;;8.13;3.00;;;;;;;9.35;87.65;97459.00;7378605;19;20014;-76
2023/03/31 01:15:10;;;;;;;4.90;2.80;;;;;;;9.32;86.73;97445.50;7387034;19;20018;-76
2023/03/31 01:17:36;;;;;;;8.25;3.10;;;;;;;9.31;87.06;97447.31;7387176;19;20018;-77
2023/03/31 01:20:20;;;;;;;8.20;3.30;;;;;;;9.30;86.89;97437.84;7389110;19;20007;-77
2023/03/31 01:23:24;;;;;;;6.95;2.97;;;;;;;9.29;87.02;97428.47;7384502;19;20015;-77
2023/03/31 01:26:52;;;;;;;5.05;2.90;;;;;;;9.28;88.30;97424.22;7388070;19;20019;-77
2023/03/31 01:29:58;;;;;;;9.30;3.08;;;;;;;9.23;87.76;97416.06;7389046;19;20332;-77
2023/03/31 01:33:01;;;;;;;9.85;3.38;;;;;;;9.22;87.90;97419.63;7389876;19;20014;-76
2023/03/31 01:35:57;;;;;;;7.30;3.20;;;;;;;9.22;88.26;97419.63;7386241;19;20615;-77
2023/03/31 01:38:51;;;;;;;8.98;3.30;;;;;;;9.18;88.28;97413.94;7389093;19;20344;-77
2023/03/31 01:41:53;;;;;;;7.28;3.00;;;;;;;9.16;87.99;97415.03;7386219;19;20014;-77
2023/03/31 01:44:50;;;;;;;7.22;3.38;;;;;;;9.12;87.38;97398.94;7386775;19;20017;-77
2023/03/31 01:47:29;;;;;;;7.85;3.10;;;;;;;9.05;86.82;97399.69;7387288;19;20043;-77
2023/03/31 01:50:28;;;;;;;5.95;3.20;;;;;;;9.01;86.66;97386.19;7387485;19;20062;-77
2023/03/31 01:53:20;;;;;;;13.13;3.00;;;;;;;8.95;86.82;97384.22;7388429;19;20038;-76
2023/03/31 01:56:05;;;;;;;10.93;3.30;;;;;;;8.94;87.37;97385.97;7386669;19;20002;-77
2023/03/31 01:58:53;;;;;;;6.35;2.72;;;;;;;8.95;87.54;97386.81;7387093;19;20015;-77
2023/03/31 02:01:40;;;;;;;5.80;3.13;;;;;;;8.91;86.71;97375.06;7387353;19;20470;-77
2023/03/31 02:04:15;;;;;;;6.68;3.10;;;;;;;8.93;87.63;97376.56;7386291;19;20077;-76
2023/03/31 02:06:51;;;;;;;8.63;3.20;;;;;;;8.93;87.10;97362.78;7385521;19;20029;-77
2023/03/31 02:09:43;;;;;;;8.50;3.20;;;;;;;8.89;86.61;97367.44;7385018;19;20082;-77
2023/03/31 02:12:11;;;;;;;;;;;;;;;8.92;87.42;97363.75;7388144;19;20682;-77
2023/03/31 02:14:45;;;;;;;7.65;3.00;;;;;;;8.93;87.05;97357.59;7371910;19;19919;-77
2023/03/31 02:17:19;;;;;;;4.80;3.28;;;;;;;8.92;86.69;97353.34;7385361;19;20062;-77
2023/03/31 02:19:51;;;;;;;6.65;3.42;;;;;;;8.91;86.89;97354.31;7387449;19;20351;-77
2023/03/31 02:22:22;;;;;;;8.48;3.25;;;;;;;8.93;87.37;97353.19;7383475;19;20011;-77
2023/03/31 02:24:52;;;;;;;6.60;3.70;;;;;;;8.96;87.49;97352.06;7386947;19;20025;-77
2023/03/31 02:27:25;;;;;;;4.28;3.08;;;;;;;8.96;87.17;97336.50;7385631;19;20115;-77
2023/03/31 02:29:53;;;;;;;7.38;3.10;;;;;;;8.96;87.31;97336.50;7386123;19;20363;-77
2023/03/31 02:32:36;;;;;;;6.72;3.35;;;;;;;8.97;86.85;97341.53;7386434;19;20487;-77
2023/03/31 02:35:05;;;;;;;7.28;3.22;;;;;;;8.93;86.05;97342.00;7386645;19;20006;-77
2023/03/31 02:37:31;;;;;;;7.20;3.83;;;;;;;8.92;86.36;97350.75;7386663;19;20018;-77
2023/03/31 02:40:05;;;;;;;4.63;3.30;;;;;;;8.93;86.93;97335.03;7388732;19;20025;-77
2023/03/31 02:42:31;;;;;;;7.18;3.28;;;;;;;8.96;87.09;97334.72;7387074;19;20010;-77
2023/03/31 02:45:04;;;;;;;6.05;3.40;;;;;;;8.98;86.57;97330.19;7387912;19;20018;-77
2023/03/31 02:47:30;;;;;;;9.63;3.42;;;;;;;8.96;86.28;97321.75;7385777;19;20010;-77
2023/03/31 02:50:01;;;;;;;6.53;3.20;;;;;;;8.88;85.37;97311.31;7384977;19;20692;-77
2023/03/31 02:53:14;;;;;;;6.90;3.40;;;;;;;8.88;85.60;97308.69;7386161;19;20015;-77
2023/03/31 02:56:08;;;;;;;6.28;3.47;;;;;;;8.91;86.48;97310.16;7386140;19;20018;-77
2023/03/31 02:59:15;;;;;;;9.50;3.67;;;;;;;8.90;86.35;97306.75;7384632;19;20359;-78
2023/03/31 03:01:58;;;;;;;6.20;3.22;;;;;;;8.93;87.01;97303.06;7384123;19;20017;-77
2023/03/31 03:05:10;;;;;;;6.93;3.28;;;;;;;8.94;86.39;97294.28;7383838;19;20010;-77
2023/03/31 03:08:13;;;;;;;6.40;3.33;;;;;;;8.93;86.17;97292.66;7385929;19;20047;-78
2023/03/31 03:11:01;;;;;;;4.65;3.30;;;;;;;8.92;86.23;97289.25;7385731;19;20019;-77
2023/03/31 03:14:15;;;;;;;7.28;3.50;;;;;;;8.91;86.00;97290.22;7374557;19;20034;-77
2023/03/31 03:16:55;;;;;;;6.82;3.15;;;;;;;8.91;86.32;97287.63;7384529;19;20496;-77
2023/03/31 03:19:22;;;;;;;4.55;3.15;;;;;;;8.88;85.83;97279.34;7383230;19;20011;-77
2023/03/31 03:21:49;;;;;;;5.07;3.00;;;;;;;8.88;86.52;97261.97;7384561;19;19994;-76
2023/03/31 03:24:16;;;;;;;6.13;3.53;;;;;;;8.84;85.75;97271.00;7384954;19;20085;-77
2023/03/31 03:26:45;;;;;;;7.60;3.33;;;;;;;8.81;84.68;97266.97;7384444;19;20017;-77
2023/03/31 03:29:13;;;;;;;8.52;3.55;;;;;;;8.80;85.14;97256.72;7385567;19;20027;-76
2023/03/31 03:31:42;;;;;;;4.70;3.15;;;;;;;8.83;86.47;97253.81;7383623;19;20007;-77
2023/03/31 03:34:09;;;;;;;5.72;3.40;;;;;;;8.89;86.99;97247.19;7382086;19;20141;-77
2023/03/31 03:36:39;;;;;;;4.00;3.00;;;;;;;8.88;85.94;97246.38;7382576;19;20011;-77
2023/03/31 03:39:06;;;;;;;4.72;3.55;;;;;;;8.89;86.44;97239.41;7386016;19;20022;-77
2023/03/31 03:41:33;;;;;;;11.75;3.45;;;;;;;8.89;86.12;97232.41;7382348;19;20021;-77
2023/03/31 03:44:00;;;;;;;5.40;3.25;;;;;;;8.87;85.41;97233.56;7386610;19;20011;-77
2023/03/31 03:46:26;;;;;;;4.82;2.80;;;;;;;8.87;85.36;97226.56;7384394;19;20513;-77
2023/03/31 03:48:53;;;;;;;5.80;2.97;;;;;;;8.89;85.74;97216.84;7383862;19;20011;-77
2023/03/31 03:51:19;;;;;;;7.78;3.33;;;;;;;8.89;85.83;97209.06;7384298;19;20018;-76
2023/03/31 03:53:45;;;;;;;7.43;3.20;;;;;;;8.91;85.84;97211.50;7383609;19;20014;-77
2023/03/31 03:56:12;;;;;;;4.90;3.10;;;;;;;8.93;86.10;97200.00;7383499;19;20007;-77
2023/03/31 03:58:38;;;;;;;6.53;3.55;;;;;;;8.93;85.54;97207.78;7384643;19;20014;-77
2023/03/31 04:01:04;;;;;;;4.78;3.30;;;;;;;8.94;85.67;97200.81;7382122;19;20451;-77
2023/03/31 04:03:31;;;;;;;5.53;3.03;;;;;;;8.93;85.36;97202.59;7384567;19;20010;-77
2023/03/31 04:05:57;;;;;;;6.00;3.03;;;;;;;8.88;85.20;97199.66;7384431;19;20661;-77
2023/03/31 04:08:23;;;;;;;8.95;3.35;;;;;;;8.87;85.48;97194.63;7383760;19;20015;-77
2023/03/31 04:10:50;;;;;;;4.30;2.78;;;;;;;8.90;86.13;97194.31;7388089;19;20022;-77
2023/03/31 04:13:19;;;;;;;5.82;3.38;;;;;;;8.90;85.99;97187.31;7379086;19;20348;-77
2023/03/31 04:15:45;;;;;;;7.32;2.92;;;;;;;8.92;85.60;97180.19;7390935;19;20038;-77
2023/03/31 04:18:21;;;;;;;5.70;2.92;;;;;;;8.90;84.52;97173.53;7390484;19;20514;-76
2023/03/31 04:21:04;;;;;;;7.35;3.05;;;;;;;8.89;84.64;97170.09;7390163;19;20010;-77
2023/03/31 04:23:45;;;;;;;7.05;3.28;;;;;;;8.87;83.59;97176.44;7391372;19;20455;-76
2023/03/31 04:26:13;;;;;;;4.97;2.65;;;;;;;8.86;83.77;97172.19;7389436;19;20022;-77
2023/03/31 04:28:41;;;;;;;5.55;3.05;;;;;;;8.88;83.69;97168.50;7388419;19;20828;-76
2023/03/31 04:31:14;;;;;;;6.40;3.28;;;;;;;8.89;83.72;97164.91;7390568;19;20508;-77
2023/03/31 04:33:40;;;;;;;9.00;3.55;;;;;;;8.91;83.32;97162.16;7390285;19;20015;-77
2023/03/31 04:36:16;;;;;;;6.93;2.88;;;;;;;8.82;83.13;97158.72;7388615;19;20010;-77
2023/03/31 04:38:45;;;;;;;7.50;3.50;;;;;;;8.81;84.00;97144.13;7390802;19;20020;-77
2023/03/31 04:41:13;;;;;;;5.82;3.00;;;;;;;8.84;83.94;97133.41;7388571;19;20011;-77
2023/03/31 04:43:39;;;;;;;5.82;2.83;;;;;;;8.87;84.56;97132.31;7390650;19;20010;-77
2023/03/31 04:46:06;;;;;;;5.47;2.70;;;;;;;8.83;83.35;97121.41;7392898;19;20364;-77
2023/03/31 04:48:32;;;;;;;8.15;2.75;;;;;;;8.90;84.22;97117.22;7392171;19;20014;-77
2023/03/31 04:50:58;;;;;;;8.23;2.97;;;;;;;8.89;84.05;97113.00;7386735;19;20015;-77
2023/03/31 04:53:25;;;;;;;5.05;2.63;;;;;;;8.91;84.14;97115.44;7390538;19;20022;-76
2023/03/31 04:55:51;;;;;;;5.43;2.97;;;;;;;8.94;84.62;97113.34;7389879;19;20082;-77
2023/03/31 04:58:18;;;;;;;6.38;3.00;;;;;;;8.99;84.98;97105.88;7389114;19;20034;-77
2023/03/31 05:00:44;;;;;;;6.68;2.67;;;;;;;9.02;83.50;97091.78;7389492;19;20014;-77
2023/03/31 05:03:10;;;;;;;5.45;3.13;;;;;;;9.06;84.07;97089.69;7387338;19;20007;-77
2023/03/31 05:05:37;;;;;;;8.23;3.28;;;;;;;9.07;84.96;97083.53;7389085;19;20011;-77
2023/03/31 05:08:03;;;;;;;7.78;2.78;;;;;;;9.11;85.81;97085.63;7389116;19;20011;-77
2023/03/31 05:10:30;;;;;;;5.82;2.95;;;;;;;9.13;85.15;97085.47;7388032;19;20371;-77
2023/03/31 05:12:57;;;;;;;5.68;3.00;;;;;;;9.13;84.60;97086.31;7376670;19;20054;-77
2023/03/31 05:15:25;;;;;;;6.85;3.47;;;;;;;9.18;85.58;97096.19;7389466;19;20006;-77
2023/03/31 05:17:52;;;;;;;5.30;2.97;;;;;;;9.21;85.52;97092.47;7388796;19;20006;-77
2023/03/31 05:20:19;;;;;;;6.85;2.97;;;;;;;9.24;85.42;97081.78;7389226;19;20014;-77
2023/03/31 05:22:46;;;;;;;5.63;3.10;;;;;;;9.22;84.97;97076.72;7387355;19;20120;-77
2023/03/31 05:25:17;;;;;;;7.50;3.15;;;;;;;9.23;84.96;97073.16;7390170;19;20017;-77
2023/03/31 05:27:46;;;;;;;;;;;;;;;9.21;84.80;97059.50;7389145;19;20022;-77
2023/03/31 05:30:13;;;;;;;9.20;3.40;;;;;;;9.26;85.85;97044.25;7389129;19;19919;-77
2023/03/31 05:32:40;;;;;;;6.35;3.08;;;;;;;9.24;85.17;97041.00;7388783;19;20351;-77
2023/03/31 05:35:08;;;;;;;8.25;3.25;;;;;;;9.26;85.85;97027.88;7388341;19;20098;-78
2023/03/31 05:37:34;;;;;;;8.00;2.85;;;;;;;9.27;85.89;97019.91;7388036;19;20010;-78
2023/03/31 05:40:02;;;;;;;5.38;3.00;;;;;;;9.32;85.99;97016.81;7387074;19;20018;-77
2023/03/31 05:42:29;;;;;;;8.52;3.10;;;;;;;9.32;85.84;97009.00;7385116;19;20045;-77
2023/03/31 05:44:56;;;;;;;7.22;3.08;;;;;;;9.34;85.52;97009.69;7384926;19;20030;-77
2023/03/31 05:47:22;;;;;;;9.57;2.80;;;;;;;9.33;85.63;96995.88;7385268;19;20002;-77
2023/03/31 05:49:48;;;;;;;7.45;2.97;;;;;;;9.31;85.28;96995.22;7386436;19;20414;-78
2023/03/31 05:52:15;;;;;;;8.43;3.03;;;;;;;9.32;85.98;96994.25;7389629;19;20043;-77
2023/03/31 05:54:41;;;;;;;5.82;3.03;;;;;;;9.28;85.14;96995.53;7388659;19;20473;-77
2023/03/31 05:57:08;;;;;;;10.88;2.67;;;;;;;9.26;84.71;97010.47;7388109;19;20431;-77
2023/03/31 05:59:35;;;;;;;4.85;2.70;;;;;;;9.29;85.88;97001.56;7386552;19;20010;-77
2023/03/31 06:02:02;;;;;;;7.50;3.03;;;;;;;9.26;85.19;96996.69;7384399;19;20039;-77
2023/03/31 06:04:31;;;;;;;4.55;2.50;;;;;;;9.27;85.85;96988.75;7383691;19;20561;-77
2023/03/31 06:06:58;;;;;;;4.93;2.90;;;;;;;9.26;85.56;96992.31;7386812;19;20018;-77
2023/03/31 06:09:25;;;;;;;5.93;2.92;;;;;;;9.27;85.64;96983.53;7384287;19;20082;-77
2023/03/31 06:11:52;;;;;;;8.70;2.80;;;;;;;9.26;84.91;96997.50;7381909;19;20010;-77
2023/03/31 06:14:18;;;;;;;5.13;2.65;;;;;;;9.24;85.22;96991.66;7374928;19;20010;-77
2023/03/31 06:16:46;;;;;;;7.35;3.47;;;;;;;9.26;85.95;96976.72;7385039;19;20003;-77
2023/03/31 06:19:13;;;;;;;5.88;2.90;;;;;;;9.23;84.49;96969.25;7384820;19;20017;-77
2023/03/31 06:21:39;;;;;;;6.88;2.85;;;;;;;9.23;84.47;96966.66;7383383;19;20022;-76
2023/03/31 06:24:07;;;;;;;6.25;3.00;;;;;;;9.22;84.63;96967.63;7385784;19;20357;-76
2023/03/31 06:26:33;;;;;;;6.35;3.72;;;;;;;9.14;85.31;96976.22;7384517;19;20023;-76
2023/03/31 06:29:00;;;;;;;8.70;3.33;;;;;;;9.15;85.54;96987.41;7382613;19;20018;-77
2023/03/31 06:31:26;;;;;;;8.38;2.90;;;;;;;9.12;84.66;96992.97;7385538;19;20022;-76
2023/03/31 06:33:52;;;;;;;7.15;3.25;;;;;;;9.09;85.10;96998.47;7381477;19;20100;-76
2023/03/31 06:36:21;;;;;;;5.50;2.92;;;;;;;9.09;85.49;96998.47;7386197;19;20026;-77
2023/03/31 06:38:49;;;;;;;7.03;3.17;;;;;;;9.18;86.68;96995.72;7387538;19;20082;-77
2023/03/31 06:41:19;;;;;;;9.48;3.47;;;;;;;9.22;86.16;96992.78;7385216;19;20006;-77
2023/03/31 06:43:45;;;;;;;8.05;3.63;;;;;;;9.23;86.30;96992.63;7383948;19;20396;-77
2023/03/31 06:46:13;;;;;;;5.13;3.47;;;;;;;9.27;86.23;96991.34;7385750;19;20010;-77
2023/03/31 06:48:40;;;;;;;7.30;3.28;;;;;;;9.27;86.38;96987.91;7387580;19;20014;-77
2023/03/31 06:51:07;;;;;;;10.05;3.40;;;;;;;9.25;86.01;96987.25;7385154;19;20680;-77
2023/03/31 06:53:36;;;;;;;8.82;3.83;;;;;;;9.22;86.28;97000.56;7383183;19;20015;-77
2023/03/31 06:56:04;;;;;;;9.95;4.40;;;;;;;9.21;86.20;96999.75;7386554;19;20014;-78
2023/03/31 06:58:31;;;;;;;7.25;5.05;;;;;;;9.26;86.45;97007.09;7385789;19;20335;-77
2023/03/31 07:00:58;;;;;;;11.45;5.10;;;;;;;9.24;85.59;97009.84;7381456;19;20015;-77
2023/03/31 07:03:24;;;;;;;9.75;5.10;;;;;;;9.21;85.76;97009.34;7384720;19;20015;-77
2023/03/31 07:05:53;;;;;;;9.77;4.88;;;;;;;9.22;85.80;96996.22;7386838;19;20017;-77
2023/03/31 07:08:21;;;;;;;10.13;4.57;;;;;;;9.23;85.56;96991.81;7385874;19;20014;-77
2023/03/31 07:10:52;;;;;;;10.23;4.65;;;;;;;9.13;85.44;96984.16;7385303;19;20093;-78
2023/03/31 07:13:18;;;;;;;11.93;4.68;;;;;;;9.19;85.83;96978.34;7374689;19;20359;-77
2023/03/31 07:15:48;;;;;;;10.27;4.72;;;;;;;9.15;85.56;96983.06;7385980;19;20010;-76
2023/03/31 07:18:16;;;;;;;6.45;4.10;;;;;;;9.14;85.40;96985.81;7386325;19;20582;-77
2023/03/31 07:20:43;;;;;;;9.00;4.22;;;;;;;9.08;85.24;96984.69;7387659;19;20007;-77
2023/03/31 07:23:09;;;;;;;6.63;4.20;;;;;;;9.19;86.18;96965.34;7386002;19;20039;-77
2023/03/31 07:25:36;;;;;;;9.90;4.43;;;;;;;9.21;85.56;96963.41;7361697;19;20129;-76
2023/03/31 07:28:05;;;;;;;10.18;4.60;;;;;;;9.29;85.37;96955.63;7382323;19;20010;-76
2023/03/31 07:30:32;;;;;;;9.50;4.45;;;;;;;9.38;85.41;96949.41;7382013;19;20007;-75
2023/03/31 07:32:58;;;;;;;10.48;5.13;;;;;;;9.38;84.89;96946.03;7383431;19;20410;-76
2023/03/31 07:35:32;;;;;;;13.32;4.53;;;;;;;9.38;84.90;96941.63;7381176;19;20013;-76
2023/03/31 07:37:59;;;;;;;8.38;4.38;;;;;;;9.37;84.30;96931.41;7383639;19;20014;-76
2023/03/31 07:40:28;;;;;;;7.57;4.50;;;;;;;9.35;84.64;96923.75;7380076;19;20841;-76
2023/03/31 07:42:55;;;;;;;7.75;4.53;;;;;;;9.44;85.14;96914.19;7381202;19;20011;-76
2023/03/31 07:45:25;;;;;;;9.80;4.90;;;;;;;9.43;84.85;96902.16;7387836;19;20078;-75
2023/03/31 07:47:52;;;;;;;8.60;4.72;;;;;;;9.38;84.82;96902.66;7388300;19;20007;-76
2023/03/31 07:50:21;;;;;;;10.60;5.10;;;;;;;9.29;84.72;96901.06;7389220;19;20026;-77
2023/03/31 07:52:47;;;;;;;9.65;4.93;;;;;;;9.34;85.62;96888.38;7390183;19;20018;-76
2023/03/31 07:55:14;;;;;;;12.10;5.90;;;;;;;9.37;85.80;96892.41;7390091;19;20022;-76
2023/03/31 07:57:40;;;;;;;11.68;5.75;;;;;;;9.41;85.77;96888.53;7392250;19;20375;-76
2023/03/31 08:00:11;;;;;;;10.45;5.50;;;;;;;9.44;85.78;96882.19;7392231;19;20007;-78
2023/03/31 08:02:39;;;;;;;11.67;6.30;;;;;;;9.38;85.90;96887.06;7385400;19;20078;-77
2023/03/31 08:05:06;;;;;;;9.52;5.53;;;;;;;9.43;86.36;96883.16;7391870;19;20494;-78
2023/03/31 08:07:37;;;;;;;14.75;5.88;;;;;;;9.36;85.99;96886.41;7390350;19;20006;-79
2023/03/31 08:10:08;;;;;;;10.88;6.28;;;;;;;9.36;86.48;96880.44;7390864;19;20014;-77
2023/03/31 08:12:35;;;;;;;9.00;5.78;;;;;;;9.33;86.42;96870.34;7384950;19;20015;-78
2023/03/31 08:15:03;;;;;;;9.57;6.05;;;;;;;9.33;86.54;96872.97;7394239;19;20026;-81
2023/03/31 08:17:30;;;;;;;11.52;5.80;;;;;;;9.29;86.50;96869.09;7393250;19;20408;-79
2023/03/31 08:20:06;;;;;;;8.02;6.43;;;;;;;9.31;86.81;96873.13;7395650;19;20049;-80
2023/03/31 08:22:33;;;;;;;11.80;6.53;;;;;;;9.32;87.07;96864.34;7393463;19;20017;-77
2023/03/31 08:25:00;;;;;;;12.57;6.65;;;;;;;9.35;86.91;96858.00;7395860;19;20326;-78
2023/03/31 08:27:26;;;;;;;10.95;6.50;;;;;;;9.26;87.11;96856.41;7387684;19;20498;-78
2023/03/31 08:29:52;;;;;;;10.45;6.88;;;;;;;9.25;87.26;96847.78;7389405;19;20736;-78
2023/03/31 08:32:28;;;;;;;9.93;5.82;;;;;;;9.31;87.51;96843.75;7394279;19;20011;-78
2023/03/31 08:34:54;;;;;;;8.65;7.05;;;;;;;9.25;87.61;96837.41;7390529;19;20042;-77
2023/03/31 08:37:20;;;;;;;12.93;7.57;;;;;;;9.29;87.81;96836.09;7392787;19;20363;-79
2023/03/31 08:39:46;;;;;;;11.57;6.70;;;;;;;9.35;87.74;96825.03;7393755;19;20470;-78
2023/03/31 08:42:24;;;;;;;11.07;6.57;;;;;;;9.40;87.73;96798.56;7392001;19;20035;-78
2023/03/31 08:45:06;;;;;;;12.60;6.55;;;;;;;9.50;86.85;96751.59;7390474;19;20040;-77
2023/03/31 08:47:35;;;;;;;9.02;6.22;;;;;;;9.56;86.80;96741.31;7393627;19;20479;-77
2023/03/31 08:50:12;;;;;;;13.27;6.82;;;;;;;9.70;86.37;96746.78;7391551;19;20018;-78
2023/03/31 08:52:48;;;;;;;8.90;5.95;;;;;;;9.75;85.95;96750.47;7393281;19;20039;-77
2023/03/31 08:55:27;;;;;;;11.02;6.00;;;;;;;9.84;85.58;96763.44;7392568;19;20066;-76
2023/03/31 08:58:02;;;;;;;7.65;6.40;;;;;;;10.02;84.96;96765.75;7391844;19;20470;-77
2023/03/31 09:00:45;;;;;;;10.48;5.85;;;;;;;10.14;84.48;96769.56;7390773;19;20007;-77
2023/03/31 09:03:33;;;;;;;8.73;5.85;;;;;;;10.25;84.72;96773.56;7388760;19;20010;-77
2023/03/31 09:06:13;;;;;;;9.45;5.38;;;;;;;10.44;83.87;96765.31;7392305;19;20010;-77
2023/03/31 09:08:43;;;;;;;11.80;5.50;;;;;;;10.64;83.03;96764.78;7391717;19;20628;-77
2023/03/31 09:11:38;;;;;;;10.23;5.77;;;;;;;10.87;82.40;96762.94;7390258;19;20334;-77
2023/03/31 09:14:36;;;;;;;7.25;5.28;;;;;;;10.95;82.14;96756.03;7379773;19;20529;-77
2023/03/31 09:17:24;;;;;;;6.60;4.97;;;;;;;11.04;81.31;96752.38;7389086;19;20010;-77
2023/03/31 09:20:00;;;;;;;9.25;5.38;;;;;;;11.16;80.98;96747.53;7389032;19;20031;-76
2023/03/31 09:22:37;;;;;;;8.45;5.57;;;;;;;11.30;80.05;96751.09;7389860;19;20014;-77
2023/03/31 09:25:19;;;;;;;5.78;4.35;;;;;;;11.35;80.75;96736.53;7387782;19;20017;-77
2023/03/31 09:27:51;;;;;;;11.13;5.70;;;;;;;11.26;81.15;96745.44;7387947;19;20021;-78
2023/03/31 09:30:35;;;;;;;8.15;4.65;;;;;;;11.27;80.34;96736.63;7387718;19;20010;-77
2023/03/31 09:33:21;;;;;;;7.68;4.80;;;;;;;11.18;80.90;96743.75;7389766;19;20018;-77
2023/03/31 09:35:47;;;;;;;6.88;4.70;;;;;;;11.02;80.50;96739.53;7388978;19;20043;-77
2023/03/31 09:38:15;;;;;;;6.93;4.82;;;;;;;11.06;79.67;96743.38;7390185;19;20022;-77
2023/03/31 09:40:42;;;;;;;9.48;4.75;;;;;;;11.20;79.88;96738.34;7387913;19;20014;-77
2023/03/31 09:43:25;;;;;;;7.90;4.80;;;;;;;11.50;80.28;96740.91;7385599;19;20018;-77
2023/03/31 09:45:53;;;;;;;9.43;4.68;;;;;;;11.54;79.94;96736.97;7388526;19;20022;-76
2023/03/31 09:48:25;;;;;;;7.05;4.80;;;;;;;11.62;79.04;96735.03;7385519;19;20018;-75
2023/03/31 09:50:58;;;;;;;5.30;4.22;;;;;;;11.60;78.14;96733.59;7384049;19;20053;-75
2023/03/31 09:53:52;;;;;;;6.85;4.32;;;;;;;11.76;79.06;96738.59;7386231;19;20078;-76
2023/03/31 09:56:54;;;;;;;9.02;4.78;;;;;;;12.01;78.73;96734.88;7386422;19;20014;-77
2023/03/31 09:59:30;;;;;;;7.38;4.53;;;;;;;11.96;78.67;96738.03;7382762;19;20018;-76
2023/03/31 10:02:03;;;;;;;5.85;4.40;;;;;;;11.94;78.25;96734.78;7385689;19;20010;-81
2023/03/31 10:04:34;;;;;;;6.43;4.88;;;;;;;12.11;78.08;96725.72;7392230;19;20010;-87
2023/03/31 10:07:04;;;;;;;6.10;4.35;;;;;;;12.32;78.39;96732.75;7383763;19;20034;-74
2023/03/31 10:09:33;;;;;;;7.23;4.57;;;;;;;12.49;76.27;96740.28;7379761;19;20015;-75
2023/03/31 10:12:07;;;;;;;7.68;4.75;;;;;;;12.43;76.14;96736.63;7382131;19;20010;-74
2023/03/31 10:14:49;;;;;;;5.85;3.83;;;;;;;12.33;75.30;96739.56;7368808;19;20021;-74
2023/03/31 10:17:19;;;;;;;4.22;3.72;;;;;;;12.43;73.53;96734.03;7384417;19;20471;-75
2023/03/31 10:19:56;;;;;;;5.75;3.75;;;;;;;12.59;76.90;96730.31;7384455;19;20048;-75
2023/03/31 10:22:22;;;;;;;4.57;3.60;;;;;;;12.68;73.49;96723.16;7382972;19;20758;-74
2023/03/31 10:24:51;;;;;;;5.70;3.63;;;;;;;12.79;74.51;96714.78;7381538;19;20020;-75
2023/03/31 10:27:23;;;;;;;5.20;3.15;;;;;;;12.62;73.41;96724.72;7381920;19;20041;-74
2023/03/31 10:30:03;;;;;;;6.13;4.22;;;;;;;12.79;71.83;96717.41;7376467;19;20014;-74
2023/03/31 10:32:39;;;;;;;6.45;2.90;;;;;;;12.60;69.29;96718.91;7381791;19;20003;-75
2023/03/31 10:35:22;;;;;;;4.65;2.95;;;;;;;12.68;71.42;96713.53;7381086;19;20014;-74
2023/03/31 10:37:55;;;;;;;6.43;2.38;;;;;;;12.64;70.85;96698.44;7381406;19;20082;-73
2023/03/31 10:40:26;;;;;;;5.60;2.25;;;;;;;12.61;68.17;96704.03;7382270;19;20070;-74
2023/03/31 10:43:36;;;;;;;6.57;2.58;;;;;;;12.67;67.76;96698.84;7380620;19;20010;-73
2023/03/31 10:46:04;;;;;;;5.40;2.08;;;;;;;12.71;66.07;96694.88;7383174;19;20014;-74
2023/03/31 10:48:33;;;;;;;5.93;1.85;;;;;;;12.85;65.67;96684.47;7380016;19;20014;-74
2023/03/31 10:51:25;;;;;;;5.50;2.15;;;;;;;12.91;66.14;96686.34;7379712;19;20015;-74
2023/03/31 10:53:55;;;;;;;7.10;2.20;;;;;;;12.87;65.40;96685.13;7381166;19;20111;-75
2023/03/31 10:56:40;;;;;;;7.18;2.35;;;;;;;12.83;64.99;96686.47;7380741;19;20094;-74
2023/03/31 10:59:35;;;;;;;4.60;1.90;;;;;;;12.82;65.66;96669.22;7382432;19;20017;-75
2023/03/31 11:03:02;;;;;;;5.13;1.90;;;;;;;12.92;64.52;96659.22;7377934;19;20011;-74
2023/03/31 11:06:04;;;;;;;4.93;2.03;;;;;;;13.06;66.31;96668.72;7382294;19;20014;-75
2023/03/31 11:08:53;;;;;;;2.90;1.75;;;;;;;13.26;64.06;96676.66;7383611;19;20030;-74
2023/03/31 11:11:31;;;;;;;3.53;1.45;;;;;;;13.07;64.90;96672.13;7378784;19;20018;-75
2023/03/31 11:14:33;;;;;;;4.05;1.40;;;;;;;12.65;66.65;96674.72;7369686;19;20026;-75
2023/03/31 11:17:11;;;;;;;2.70;1.30;;;;;;;11.88;73.12;96660.69;7381105;19;20014;-76
2023/03/31 11:19:59;;;;;;;4.47;1.60;;;;;;;11.56;75.17;96667.97;7384304;19;20018;-76
2023/03/31 11:22:42;;;;;;;5.07;1.80;;;;;;;11.38;76.50;96657.97;7385657;19;20074;-76
2023/03/31 11:25:19;;;;;;;3.05;1.20;;;;;;;11.19;77.37;96662.00;7387828;19;20735;-75
2023/03/31 11:28:22;;;;;;;4.97;1.60;;;;;;;11.15;79.09;96636.47;7389488;19;20429;-76
2023/03/31 11:31:22;;;;;;;3.75;1.33;;;;;;;11.38;79.22;96639.75;7381785;19;20002;-75
2023/03/31 11:34:34;;;;;;;4.27;1.57;;;;;;;11.87;80.33;96643.41;7388052;19;20015;-75
2023/03/31 11:37:51;;;;;;;3.33;1.65;;;;;;;11.99;77.50;96662.00;7388111;19;20018;-73
2023/03/31 11:40:33;;;;;;;3.65;1.75;;;;;;;11.51;78.02;96677.34;7387063;19;20017;-73
2023/03/31 11:43:10;;;;;;;2.25;1.52;;;;;;;11.29;77.90;96689.53;7384029;19;20054;-73
2023/03/31 11:45:54;;;;;;;4.53;1.60;;;;;;;11.47;78.71;96694.38;7384801;19;20015;-73
2023/03/31 11:48:49;;;;;;;1.88;1.40;;;;;;;11.67;75.39;96690.19;7384416;19;20002;-73
2023/03/31 11:51:27;;;;;;;5.15;1.52;;;;;;;11.51;76.10;96695.59;7382276;19;20039;-74
2023/03/31 11:53:58;;;;;;;2.33;1.33;;;;;;;11.43;74.16;96676.47;7383755;19;20045;-73
2023/03/31 11:56:36;;;;;;;3.13;1.20;;;;;;;11.35;73.46;96666.16;7382159;19;20029;-73
2023/03/31 11:59:06;;;;;;;2.20;1.20;;;;;;;11.06;71.41;96661.81;7384351;19;20010;-73
2023/03/31 12:01:58;;;;;;;2.10;1.00;;;;;;;10.99;75.18;96656.53;7381824;19;20340;-73
2023/03/31 12:04:41;;;;;;;2.03;0.85;;;;;;;10.62;72.14;96668.66;7384440;19;20017;-73
2023/03/31 12:07:34;;;;;;;2.03;1.00;;;;;;;10.77;71.75;96660.06;7383251;19;20013;-75
2023/03/31 12:10:20;;;;;;;2.72;1.00;;;;;;;10.74;72.46;96666.41;7382759;19;20021;-73
2023/03/31 12:13:01;;;;;;;1.85;0.80;;;;;;;10.35;70.76;96675.28;7373525;19;20024;-73
2023/03/31 12:15:40;;;;;;;2.17;0.77;;;;;;;10.22;70.37;96683.66;7383015;19;20022;-73